Time;durP1;ratioP1;P1;durP2;ratioP2;P2;SDS_P1;SDS_P2;PMS_P1;PMS_P2;Temp;Humidity;BMP_temperature;BMP_pressure;BME280_temperature;BME280_humidity;BME280_pressure;Samples;Min_cycle;Max_cycle;Signal;HPM_P1;HPM_P2
2021/03/16 00:00:32;;;;;;;19.98;1.70;;;6.30;96.30;;;;;;5054709;28;20040;-80
2021/03/16 00:03:18;;;;;;;21.50;1.53;;;6.30;96.10;;;;;;5052334;28;20040;-80
2021/03/16 00:05:53;;;;;;;18.88;0.90;;;6.30;96.10;;;;;;5017152;28;20532;-84
2021/03/16 00:08:20;;;;;;;18.57;1.60;;;6.20;96.20;;;;;;5029494;28;20043;-81
2021/03/16 00:10:47;;;;;;;21.07;1.80;;;6.20;96.20;;;;;;5020931;28;20929;-84
2021/03/16 00:13:15;;;;;;;17.63;1.70;;;6.30;96.10;;;;;;5067590;28;20063;-84
2021/03/16 00:15:41;;;;;;;18.33;1.63;;;6.30;96.20;;;;;;5019784;28;20043;-84
2021/03/16 00:18:14;;;;;;;13.93;1.42;;;6.20;96.20;;;;;;5050715;28;20051;-85
2021/03/16 00:20:42;;;;;;;26.23;1.65;;;6.30;96.30;;;;;;5067960;28;20036;-80
2021/03/16 00:23:10;;;;;;;18.70;1.52;;;6.30;96.30;;;;;;5048273;28;20040;-81
2021/03/16 00:25:37;;;;;;;24.60;2.13;;;6.20;96.30;;;;;;5034499;28;20056;-80
2021/03/16 00:28:04;;;;;;;21.75;1.88;;;6.20;96.30;;;;;;5083260;28;20043;-86
2021/03/16 00:30:31;;;;;;;20.45;1.75;;;6.10;96.30;;;;;;5034544;28;20045;-81
2021/03/16 00:32:58;;;;;;;20.13;1.70;;;6.00;96.30;;;;;;5050992;28;20047;-85
2021/03/16 00:35:25;;;;;;;23.38;1.77;;;6.10;96.30;;;;;;5050460;28;20036;-85
2021/03/16 00:37:52;;;;;;;18.20;1.48;;;6.00;96.30;;;;;;5034484;28;20039;-81
2021/03/16 00:40:18;;;;;;;21.05;1.45;;;6.10;96.20;;;;;;5034864;28;20044;-85
2021/03/16 00:42:46;;;;;;;15.03;1.33;;;6.10;96.30;;;;;;5063433;28;20047;-80
2021/03/16 00:45:13;;;;;;;19.50;1.55;;;6.20;96.30;;;;;;5068924;28;20036;-85
2021/03/16 00:47:39;;;;;;;19.10;1.70;;;6.20;96.30;;;;;;5050247;28;20044;-84
2021/03/16 00:50:08;;;;;;;18.20;1.67;;;6.20;96.30;;;;;;5017507;28;20376;-85
2021/03/16 00:52:36;;;;;;;14.38;1.13;;;6.20;96.30;;;;;;5050388;28;20040;-84
2021/03/16 00:55:04;;;;;;;14.50;1.52;;;6.30;96.40;;;;;;5037054;28;20054;-81
2021/03/16 00:57:32;;;;;;;12.68;0.93;;;6.30;96.40;;;;;;5033818;28;20032;-84
2021/03/16 00:59:59;;;;;;;13.60;1.48;;;6.30;96.40;;;;;;5050326;28;20479;-84
2021/03/16 01:02:25;;;;;;;18.20;1.90;;;6.20;96.30;;;;;;5038031;28;20548;-84
2021/03/16 01:04:52;;;;;;;13.18;1.00;;;6.20;96.20;;;;;;5053511;28;20060;-84
2021/03/16 01:07:18;;;;;;;15.95;1.35;;;6.10;96.00;;;;;;5038154;28;20391;-84
2021/03/16 01:09:45;;;;;;;15.47;1.17;;;6.00;95.90;;;;;;5040031;28;20052;-84
2021/03/16 01:12:12;;;;;;;15.75;1.40;;;6.00;95.90;;;;;;5039578;28;20051;-84
2021/03/16 01:14:38;;;;;;;13.50;1.10;;;5.90;95.80;;;;;;5021329;28;20032;-84
2021/03/16 01:17:05;;;;;;;16.90;1.20;;;5.80;95.80;;;;;;5039341;28;20043;-85
2021/03/16 01:19:32;;;;;;;18.10;1.43;;;5.70;95.70;;;;;;5055409;28;20411;-85
2021/03/16 01:21:58;;;;;;;9.40;1.13;;;5.70;95.70;;;;;;5031388;28;20043;-85
2021/03/16 01:24:25;;;;;;;13.63;1.10;;;5.70;95.70;;;;;;5044438;28;20044;-80
2021/03/16 01:26:51;;;;;;;6.65;0.52;;;5.80;95.60;;;;;;5059468;28;20490;-85
2021/03/16 01:29:18;;;;;;;16.00;0.73;;;5.90;95.60;;;;;;5036411;28;20055;-84
2021/03/16 01:31:44;;;;;;;17.75;1.92;;;5.90;95.60;;;;;;5025410;28;20047;-85
2021/03/16 01:34:11;;;;;;;12.60;0.95;;;5.90;95.60;;;;;;5046396;28;20715;-85
2021/03/16 01:36:37;;;;;;;11.90;1.20;;;6.00;95.60;;;;;;5058977;28;20036;-84
2021/03/16 01:39:04;;;;;;;10.13;0.70;;;6.00;95.50;;;;;;5024435;28;20036;-84
2021/03/16 01:41:31;;;;;;;11.27;0.93;;;6.00;95.50;;;;;;5071043;28;20518;-84
2021/03/16 01:43:57;;;;;;;13.55;0.82;;;6.10;95.50;;;;;;5019765;28;20051;-84
2021/03/16 01:46:24;;;;;;;15.85;0.70;;;6.10;95.60;;;;;;5058081;28;20390;-85
2021/03/16 01:48:50;;;;;;;8.37;0.73;;;6.10;95.50;;;;;;5071804;28;20059;-84
2021/03/16 01:51:18;;;;;;;11.68;0.75;;;6.10;95.50;;;;;;5053270;28;20491;-84
2021/03/16 01:53:45;;;;;;;11.70;0.95;;;6.10;95.60;;;;;;5037108;28;20040;-84
2021/03/16 01:56:14;;;;;;;16.63;1.37;;;6.10;95.60;;;;;;5089947;28;20052;-84
2021/03/16 01:59:00;;;;;;;11.35;1.00;;;6.10;95.60;;;;;;5074983;28;20689;-83
2021/03/16 02:01:45;;;;;;;17.30;2.38;;;6.10;95.60;;;;;;5054504;28;20040;-84
2021/03/16 02:04:30;;;;;;;22.70;2.23;;;6.10;95.90;;;;;;5061502;28;20078;-84
2021/03/16 02:07:56;;;;;;;16.95;1.73;;;6.20;95.70;;;;;;5070670;28;20055;-84
2021/03/16 02:10:50;;;;;;;17.60;1.13;;;6.10;95.70;;;;;;5025828;28;20044;-84
2021/03/16 02:13:43;;;;;;;12.23;1.48;;;6.10;95.80;;;;;;5055606;28;20524;-84
2021/03/16 02:16:37;;;;;;;10.18;0.75;;;6.00;95.80;;;;;;5069494;28;20048;-85
2021/03/16 02:19:48;;;;;;;11.90;1.13;;;5.90;95.90;;;;;;5072124;28;20394;-84
2021/03/16 02:22:38;;;;;;;13.52;0.85;;;6.00;96.00;;;;;;5086567;28;20402;-84
2021/03/16 02:25:54;;;;;;;14.63;1.20;;;6.00;96.00;;;;;;5070811;28;20040;-84
2021/03/16 02:29:01;;;;;;;13.52;0.80;;;6.00;96.00;;;;;;5072726;28;20052;-84
2021/03/16 02:31:59;;;;;;;16.85;1.23;;;6.00;96.00;;;;;;5053119;28;20055;-84
2021/03/16 02:34:49;;;;;;;19.52;1.15;;;6.00;95.90;;;;;;5069259;28;20789;-84
2021/03/16 02:37:38;;;;;;;12.82;1.30;;;6.00;95.70;;;;;;5054291;28;20039;-80
2021/03/16 02:40:26;;;;;;;6.27;0.50;;;6.10;95.90;;;;;;5049268;28;20036;-80
2021/03/16 02:43:12;;;;;;;11.15;0.75;;;6.00;95.90;;;;;;5065183;28;20040;-80
2021/03/16 02:45:58;;;;;;;17.20;1.02;;;6.10;95.80;;;;;;5057490;28;20040;-80
2021/03/16 02:48:47;;;;;;;17.27;1.17;;;6.10;95.80;;;;;;5039134;28;20040;-81
2021/03/16 02:51:32;;;;;;;10.67;0.70;;;6.10;95.60;;;;;;5057215;28;20051;-80
2021/03/16 02:54:19;;;;;;;9.53;0.80;;;6.10;95.50;;;;;;5053984;28;20047;-81
2021/03/16 02:57:06;;;;;;;11.23;0.80;;;6.20;95.60;;;;;;5055290;28;20043;-80
2021/03/16 02:59:53;;;;;;;12.60;1.53;;;6.20;95.50;;;;;;5030464;28;20044;-80
2021/03/16 03:02:39;;;;;;;10.27;0.85;;;6.20;95.60;;;;;;5039378;28;20036;-80
2021/03/16 03:05:25;;;;;;;10.93;0.80;;;6.20;95.50;;;;;;5056328;28;20529;-80
2021/03/16 03:08:14;;;;;;;14.50;0.80;;;6.10;95.60;;;;;;5053536;28;20036;-80
2021/03/16 03:10:59;;;;;;;9.02;0.75;;;6.10;95.60;;;;;;5057472;28;20040;-80
2021/03/16 03:13:45;;;;;;;13.30;0.60;;;6.10;95.80;;;;;;5068795;28;20420;-80
2021/03/16 03:16:30;;;;;;;6.45;0.50;;;6.10;95.80;;;;;;5034817;28;20127;-80
2021/03/16 03:19:16;;;;;;;16.33;1.02;;;6.10;95.90;;;;;;5050674;28;20032;-80
2021/03/16 03:22:42;;;;;;;14.03;1.23;;;6.10;95.90;;;;;;5069164;28;20446;-80
2021/03/16 03:25:31;;;;;;;12.77;0.60;;;6.10;95.90;;;;;;5088262;28;20048;-80
2021/03/16 03:28:24;;;;;;;9.30;0.60;;;6.20;95.90;;;;;;5047531;28;20028;-80
2021/03/16 03:31:09;;;;;;;6.78;0.60;;;6.20;96.00;;;;;;5067678;28;20047;-80
2021/03/16 03:33:55;;;;;;;14.23;0.70;;;6.10;96.00;;;;;;5067226;28;20035;-80
2021/03/16 03:36:42;;;;;;;16.40;0.98;;;6.20;96.10;;;;;;5040194;28;20055;-80
2021/03/16 03:39:30;;;;;;;8.57;0.90;;;6.20;96.10;;;;;;5067841;28;20044;-80
2021/03/16 03:42:19;;;;;;;15.35;1.05;;;6.10;96.00;;;;;;5060632;28;20050;-79
2021/03/16 03:45:07;;;;;;;12.18;0.88;;;6.20;96.10;;;;;;5052451;28;20040;-81
2021/03/16 03:47:54;;;;;;;9.48;0.80;;;6.20;96.00;;;;;;5067435;28;20036;-80
2021/03/16 03:50:40;;;;;;;12.25;0.70;;;6.20;96.10;;;;;;5055159;28;20040;-80
2021/03/16 03:53:28;;;;;;;10.95;0.93;;;6.20;96.10;;;;;;5067717;28;20060;-85
2021/03/16 03:56:15;;;;;;;13.50;0.90;;;6.20;96.10;;;;;;5067640;28;20397;-85
2021/03/16 03:59:03;;;;;;;8.57;0.52;;;6.10;96.10;;;;;;5071157;28;20127;-84
2021/03/16 04:01:50;;;;;;;11.95;1.00;;;6.10;96.20;;;;;;5057817;28;20819;-84
2021/03/16 04:04:38;;;;;;;13.90;1.08;;;6.10;96.20;;;;;;5052330;28;20032;-84
2021/03/16 04:07:24;;;;;;;16.48;1.17;;;6.10;96.20;;;;;;5053207;28;20482;-84
2021/03/16 04:10:11;;;;;;;8.88;0.63;;;6.10;96.20;;;;;;5057724;28;20036;-85
2021/03/16 04:12:57;;;;;;;19.85;1.08;;;6.10;96.20;;;;;;5047762;28;20505;-80
2021/03/16 04:15:43;;;;;;;6.17;0.50;;;6.10;96.10;;;;;;5067395;28;20051;-80
2021/03/16 04:18:28;;;;;;;16.73;1.47;;;6.10;96.20;;;;;;5055867;28;20036;-80
2021/03/16 04:21:14;;;;;;;10.63;0.80;;;6.10;96.10;;;;;;5043123;28;20048;-80
2021/03/16 04:24:00;;;;;;;15.70;0.90;;;6.10;96.10;;;;;;5050314;28;20052;-80
2021/03/16 04:26:45;;;;;;;11.83;1.00;;;6.10;96.20;;;;;;5034840;28;20028;-80
2021/03/16 04:29:30;;;;;;;13.43;1.00;;;6.10;96.20;;;;;;5054858;28;20036;-80
2021/03/16 04:32:15;;;;;;;14.45;1.25;;;6.10;96.30;;;;;;5055734;28;20074;-80
2021/03/16 04:35:00;;;;;;;11.53;1.30;;;6.10;96.30;;;;;;5053359;28;20051;-80
2021/03/16 04:37:45;;;;;;;12.70;1.10;;;6.10;96.20;;;;;;5050303;28;20036;-80
2021/03/16 04:40:31;;;;;;;9.17;0.80;;;6.10;96.20;;;;;;5057129;28;20044;-80
2021/03/16 04:43:16;;;;;;;19.63;2.05;;;6.10;96.10;;;;;;5039682;28;20063;-80
2021/03/16 04:46:01;;;;;;;19.52;1.00;;;6.00;96.10;;;;;;5055396;28;20036;-79
2021/03/16 04:48:46;;;;;;;11.15;0.98;;;5.90;96.20;;;;;;5080158;28;20048;-80
2021/03/16 04:51:31;;;;;;;14.03;0.83;;;5.90;96.30;;;;;;5055304;28;20498;-79
2021/03/16 04:54:16;;;;;;;13.02;1.60;;;5.90;96.40;;;;;;5055180;28;20040;-84
2021/03/16 04:57:01;;;;;;;15.10;1.40;;;5.80;96.40;;;;;;5066114;28;20032;-84
2021/03/16 04:59:46;;;;;;;24.53;1.70;;;5.80;96.40;;;;;;5059784;28;20044;-85
2021/03/16 05:02:31;;;;;;;20.63;1.47;;;5.80;96.50;;;;;;5057562;28;20250;-84
2021/03/16 05:05:16;;;;;;;20.77;2.40;;;5.80;96.50;;;;;;5051070;28;20040;-85
2021/03/16 05:08:02;;;;;;;13.97;1.33;;;5.80;96.50;;;;;;5046841;28;20056;-85
2021/03/16 05:10:47;;;;;;;13.32;0.93;;;5.90;96.60;;;;;;5087555;28;20044;-85
2021/03/16 05:13:32;;;;;;;18.50;1.07;;;5.90;96.60;;;;;;5030128;28;20510;-85
2021/03/16 05:16:20;;;;;;;12.10;1.03;;;5.90;96.60;;;;;;5045151;28;20048;-84
2021/03/16 05:19:06;;;;;;;14.63;1.17;;;5.90;96.60;;;;;;5054082;28;20040;-85
2021/03/16 05:21:51;;;;;;;14.87;0.93;;;5.90;96.60;;;;;;5041897;28;20052;-84
2021/03/16 05:24:37;;;;;;;16.70;1.00;;;5.90;96.60;;;;;;5058111;28;20052;-84
2021/03/16 05:27:22;;;;;;;20.07;1.47;;;5.90;96.60;;;;;;5053363;28;20043;-84
2021/03/16 05:30:08;;;;;;;14.20;1.30;;;6.00;96.60;;;;;;5073208;28;20059;-85
2021/03/16 05:32:55;;;;;;;13.37;0.90;;;6.00;96.60;;;;;;5075833;28;20056;-83
2021/03/16 05:35:40;;;;;;;20.00;1.70;;;6.00;96.60;;;;;;5088781;28;20368;-89
2021/03/16 05:38:25;;;;;;;17.07;1.17;;;6.00;96.60;;;;;;5057298;28;20387;-86
2021/03/16 05:41:10;;;;;;;16.87;1.73;;;5.90;96.60;;;;;;5041403;28;20043;-87
2021/03/16 05:43:55;;;;;;;16.27;1.30;;;5.90;96.70;;;;;;5060790;28;20044;-89
2021/03/16 05:46:42;;;;;;;16.13;1.97;;;5.90;96.70;;;;;;5045570;28;20043;-86
2021/03/16 05:49:31;;;;;;;18.73;1.50;;;5.90;96.80;;;;;;5087700;28;20502;-85
2021/03/16 05:52:16;;;;;;;17.67;1.70;;;5.90;96.80;;;;;;5072037;28;20052;-85
2021/03/16 05:55:03;;;;;;;19.10;1.77;;;5.90;96.80;;;;;;5043698;28;20040;-81
2021/03/16 05:57:51;;;;;;;19.80;2.33;;;6.00;96.80;;;;;;5057386;28;20040;-87
2021/03/16 06:00:36;;;;;;;15.93;2.07;;;6.00;96.80;;;;;;5059620;28;20035;-82
2021/03/16 06:03:22;;;;;;;19.10;1.70;;;6.00;96.80;;;;;;5089251;28;20052;-86
2021/03/16 06:06:10;;;;;;;19.27;1.42;;;6.00;96.80;;;;;;5082129;28;20588;-86
2021/03/16 06:08:55;;;;;;;19.60;1.88;;;6.00;96.90;;;;;;5056056;28;20036;-86
2021/03/16 06:11:48;;;;;;;17.90;1.33;;;6.10;96.90;;;;;;5059555;28;20078;-86
2021/03/16 06:14:35;;;;;;;18.88;1.40;;;6.10;96.90;;;;;;5048586;28;20040;-86
2021/03/16 06:17:20;;;;;;;17.20;2.05;;;6.10;97.00;;;;;;5064543;28;20044;-86
2021/03/16 06:20:06;;;;;;;18.40;1.98;;;6.20;97.00;;;;;;5041686;28;20063;-86
2021/03/16 06:23:03;;;;;;;14.45;1.23;;;6.30;97.00;;;;;;5036390;28;20043;-79
2021/03/16 06:25:48;;;;;;;20.02;1.48;;;6.30;97.00;;;;;;5055494;28;20071;-84
2021/03/16 06:28:35;;;;;;;16.55;1.50;;;6.40;97.10;;;;;;5071610;28;20043;-84
2021/03/16 06:31:24;;;;;;;18.95;1.20;;;6.40;97.00;;;;;;5057392;28;20059;-84
2021/03/16 06:34:21;;;;;;;17.25;1.30;;;6.40;96.90;;;;;;5082435;28;20056;-83
2021/03/16 06:37:06;;;;;;;14.48;1.50;;;6.40;96.90;;;;;;5063280;28;20048;-83
2021/03/16 06:39:54;;;;;;;20.48;2.42;;;6.40;97.00;;;;;;5060975;28;20413;-84
2021/03/16 06:42:39;;;;;;;13.75;1.40;;;6.40;96.90;;;;;;5071689;28;20044;-84
2021/03/16 06:45:30;;;;;;;14.02;1.27;;;6.50;97.00;;;;;;5045620;28;20043;-84
2021/03/16 06:48:16;;;;;;;17.73;1.88;;;6.50;97.00;;;;;;5073569;28;20044;-83
2021/03/16 06:51:10;;;;;;;14.65;1.00;;;6.60;97.00;;;;;;5070217;28;20032;-83
2021/03/16 06:54:06;;;;;;;18.00;1.25;;;6.60;97.30;;;;;;5054106;28;20044;-83
2021/03/16 06:56:55;;;;;;;17.20;1.50;;;6.60;96.90;;;;;;5069946;28;20036;-83
2021/03/16 06:59:40;;;;;;;22.33;1.35;;;6.50;97.00;;;;;;5061654;28;20050;-83
2021/03/16 07:02:29;;;;;;;11.25;0.93;;;6.50;96.90;;;;;;5066013;28;20125;-84
2021/03/16 07:05:25;;;;;;;16.92;1.90;;;6.40;96.80;;;;;;5049361;28;20487;-83
2021/03/16 07:08:12;;;;;;;9.23;1.10;;;6.30;97.00;;;;;;5070118;28;20043;-83
2021/03/16 07:11:00;;;;;;;11.95;0.80;;;6.20;97.10;;;;;;5071592;28;20044;-83
2021/03/16 07:13:46;;;;;;;8.70;0.90;;;6.20;97.30;;;;;;5054933;28;20391;-83
2021/03/16 07:16:31;;;;;;;14.68;1.40;;;6.20;97.50;;;;;;5045997;28;20039;-85
2021/03/16 07:19:17;;;;;;;18.30;1.80;;;6.20;97.50;;;;;;5041556;28;20036;-84
2021/03/16 07:22:06;;;;;;;12.93;0.98;;;6.20;97.60;;;;;;5056412;28;20047;-85
2021/03/16 07:24:51;;;;;;;23.40;2.60;;;6.30;97.70;;;;;;5085602;28;20060;-85
2021/03/16 07:27:36;;;;;;;17.48;1.70;;;6.30;97.70;;;;;;5046319;28;20417;-86
2021/03/16 07:30:23;;;;;;;16.42;2.25;;;6.40;97.80;;;;;;5044409;28;20043;-85
2021/03/16 07:33:11;;;;;;;19.30;2.05;;;6.50;98.10;;;;;;5043405;28;20406;-85
2021/03/16 07:35:56;;;;;;;23.05;1.98;;;6.60;98.00;;;;;;5055641;28;20042;-85
2021/03/16 07:38:42;;;;;;;15.50;1.40;;;6.70;98.00;;;;;;5070769;28;20036;-85
2021/03/16 07:41:28;;;;;;;13.13;1.52;;;6.80;98.00;;;;;;5068440;28;20111;-84
2021/03/16 07:44:15;;;;;;;14.27;1.25;;;6.90;97.90;;;;;;5058059;28;20051;-84
2021/03/16 07:47:02;;;;;;;16.02;1.20;;;7.00;97.90;;;;;;5056261;28;20047;-85
2021/03/16 07:49:47;;;;;;;13.45;1.25;;;7.00;97.90;;;;;;5057456;28;20426;-85
2021/03/16 07:52:45;;;;;;;16.42;1.95;;;7.10;98.00;;;;;;5056375;28;20043;-84
2021/03/16 07:55:30;;;;;;;16.40;1.35;;;7.20;97.80;;;;;;5044939;28;20044;-84
2021/03/16 07:58:24;;;;;;;14.32;1.63;;;7.20;97.60;;;;;;5054470;28;20036;-84
2021/03/16 08:01:09;;;;;;;16.02;1.60;;;7.20;97.50;;;;;;5071553;28;20024;-84
2021/03/16 08:04:08;;;;;;;14.75;1.63;;;7.20;97.60;;;;;;5067460;28;20052;-84
2021/03/16 08:06:58;;;;;;;14.20;1.30;;;7.30;97.70;;;;;;5046280;28;20048;-84
2021/03/16 08:09:57;;;;;;;10.55;1.35;;;7.40;97.70;;;;;;5053022;28;20047;-85
2021/03/16 08:12:43;;;;;;;16.63;1.58;;;7.50;97.60;;;;;;5041590;28;20477;-85
2021/03/16 08:15:40;;;;;;;14.30;1.88;;;7.50;97.60;;;;;;5075004;28;20048;-85
2021/03/16 08:18:30;;;;;;;14.48;1.40;;;7.60;97.20;;;;;;5075326;28;20062;-84
2021/03/16 08:21:15;;;;;;;16.92;2.40;;;7.50;97.20;;;;;;5075593;28;20407;-80
2021/03/16 08:24:05;;;;;;;17.55;1.80;;;7.60;97.20;;;;;;5052878;28;20036;-83
2021/03/16 08:26:53;;;;;;;17.05;1.60;;;7.60;97.00;;;;;;5042068;28;20051;-83
2021/03/16 08:29:45;;;;;;;12.05;1.35;;;7.60;96.90;;;;;;5062875;28;20050;-82
2021/03/16 08:32:31;;;;;;;9.65;1.63;;;7.80;96.70;;;;;;5076403;28;20058;-83
2021/03/16 08:35:17;;;;;;;15.15;1.45;;;7.80;96.60;;;;;;5061770;28;20033;-82
2021/03/16 08:38:03;;;;;;;9.95;1.05;;;7.80;96.40;;;;;;5043533;28;20059;-82
2021/03/16 08:41:11;;;;;;;19.00;2.13;;;7.90;96.40;;;;;;5053015;28;20498;-83
2021/03/16 08:43:56;;;;;;;17.25;1.35;;;8.00;96.60;;;;;;5074028;28;20072;-82
2021/03/16 08:46:41;;;;;;;17.00;1.85;;;8.20;96.60;;;;;;5043655;28;20083;-83
2021/03/16 08:49:26;;;;;;;16.05;1.88;;;8.30;96.10;;;;;;5058040;28;20039;-83
2021/03/16 08:52:27;;;;;;;8.57;1.15;;;8.40;96.00;;;;;;5046523;28;20035;-84
2021/03/16 08:55:25;;;;;;;18.25;1.35;;;8.50;95.90;;;;;;5045381;28;20043;-84
2021/03/16 08:58:10;;;;;;;20.60;3.15;;;8.50;95.20;;;;;;5056676;28;20036;-84
2021/03/16 09:00:56;;;;;;;11.27;1.33;;;8.50;95.10;;;;;;5064457;28;20043;-84
2021/03/16 09:03:41;;;;;;;16.27;2.00;;;8.50;95.00;;;;;;5061104;28;20040;-80
2021/03/16 09:06:26;;;;;;;16.13;1.63;;;8.60;95.10;;;;;;5055709;28;20044;-84
2021/03/16 09:09:13;;;;;;;11.00;1.80;;;8.60;94.90;;;;;;5068905;28;20482;-89
2021/03/16 09:11:58;;;;;;;13.45;1.40;;;8.70;94.00;;;;;;5060129;28;20047;-86
2021/03/16 09:14:43;;;;;;;15.48;1.50;;;8.70;94.20;;;;;;5046454;28;20051;-84
2021/03/16 09:17:37;;;;;;;18.40;1.58;;;8.80;94.10;;;;;;5046308;28;20036;-84
2021/03/16 09:20:35;;;;;;;12.57;1.45;;;8.80;93.40;;;;;;5060276;28;20372;-83
2021/03/16 09:23:21;;;;;;;10.52;1.05;;;8.80;93.40;;;;;;5072223;28;20467;-82
2021/03/16 09:26:06;;;;;;;20.27;2.10;;;8.80;93.20;;;;;;5043056;28;20040;-81
2021/03/16 09:28:52;;;;;;;10.88;1.23;;;8.90;92.50;;;;;;5043543;28;20032;-84
2021/03/16 09:31:37;;;;;;;11.23;1.25;;;8.90;92.50;;;;;;5061843;28;20509;-86
2021/03/16 09:34:22;;;;;;;13.82;1.50;;;9.00;92.60;;;;;;5042737;28;20486;-87
2021/03/16 09:37:12;;;;;;;9.63;1.20;;;9.00;92.60;;;;;;5040846;28;20032;-87
2021/03/16 09:39:59;;;;;;;16.35;1.65;;;9.00;92.80;;;;;;5071749;28;20040;-86
2021/03/16 09:42:49;;;;;;;7.68;0.70;;;9.00;92.30;;;;;;5035737;28;20032;-86
2021/03/16 09:45:19;;;;;;;11.95;1.10;;;9.00;92.50;;;;;;5088272;28;20063;-85
2021/03/16 09:47:47;;;;;;;9.43;1.88;;;9.00;92.60;;;;;;5036267;28;20032;-81
2021/03/16 09:50:21;;;;;;;13.73;1.27;;;9.00;92.80;;;;;;5048308;28;20035;-85
2021/03/16 09:52:57;;;;;;;9.77;0.70;;;9.00;92.40;;;;;;5057873;28;20055;-81
2021/03/16 09:55:26;;;;;;;9.98;0.95;;;9.00;92.30;;;;;;5054934;28;20040;-82
2021/03/16 09:57:53;;;;;;;11.80;0.95;;;9.00;92.40;;;;;;5052791;28;20032;-79
2021/03/16 10:00:24;;;;;;;8.13;0.73;;;9.00;92.20;;;;;;5021389;28;20403;-77
2021/03/16 10:03:06;;;;;;;13.85;1.20;;;9.00;92.10;;;;;;5070398;28;20035;-76
2021/03/16 10:05:32;;;;;;;10.57;1.80;;;9.00;91.80;;;;;;5070361;28;20040;-81
2021/03/16 10:07:59;;;;;;;11.05;1.83;;;9.00;91.50;;;;;;5039627;28;20046;-84
2021/03/16 10:10:30;;;;;;;8.48;1.10;;;9.00;91.70;;;;;;5037903;28;20043;-86
2021/03/16 10:12:59;;;;;;;15.47;1.83;;;9.10;91.60;;;;;;5053002;28;20490;-87
2021/03/16 10:15:31;;;;;;;9.82;1.00;;;9.20;91.80;;;;;;5037583;28;20289;-83
2021/03/16 10:17:59;;;;;;;13.52;0.80;;;9.40;91.60;;;;;;5089200;28;20033;-82
2021/03/16 10:20:38;;;;;;;10.63;1.10;;;9.50;91.20;;;;;;5071228;28;20039;-79
2021/03/16 10:23:07;;;;;;;13.13;1.05;;;9.50;90.40;;;;;;5088974;28;20761;-80
2021/03/16 10:25:35;;;;;;;15.00;1.30;;;9.50;90.50;;;;;;5053575;28;20044;-80
2021/03/16 10:28:04;;;;;;;9.40;1.35;;;9.50;90.60;;;;;;5053072;28;20028;-80
2021/03/16 10:30:44;;;;;;;8.77;0.80;;;9.50;90.80;;;;;;5035380;28;20043;-80
2021/03/16 10:33:12;;;;;;;11.90;0.90;;;9.60;90.60;;;;;;5069638;28;20386;-80
2021/03/16 10:35:41;;;;;;;6.43;0.63;;;9.80;90.10;;;;;;5070448;28;20055;-80
2021/03/16 10:38:08;;;;;;;10.98;0.93;;;9.80;90.00;;;;;;5050227;28;20040;-79
2021/03/16 10:40:35;;;;;;;7.38;0.82;;;9.90;89.80;;;;;;5052411;28;20032;-79
2021/03/16 10:43:03;;;;;;;11.20;0.82;;;9.90;89.70;;;;;;5020255;28;20398;-79
2021/03/16 10:45:30;;;;;;;9.60;1.25;;;9.90;89.00;;;;;;5035746;28;20054;-84
2021/03/16 10:47:56;;;;;;;10.02;0.70;;;9.90;88.90;;;;;;5068917;28;20055;-84
2021/03/16 10:50:23;;;;;;;8.82;0.75;;;9.90;88.50;;;;;;5035563;28;20055;-86
2021/03/16 10:52:49;;;;;;;12.50;0.77;;;9.90;89.20;;;;;;5047965;28;20048;-84
2021/03/16 10:55:16;;;;;;;12.52;0.90;;;9.90;89.00;;;;;;5054083;28;20051;-85
2021/03/16 10:57:42;;;;;;;7.85;0.60;;;10.00;88.80;;;;;;5037403;28;20046;-87
2021/03/16 11:00:10;;;;;;;5.88;0.85;;;10.00;87.60;;;;;;5020409;28;20035;-81
2021/03/16 11:02:36;;;;;;;8.38;0.60;;;10.20;88.60;;;;;;5057091;28;20031;-85
2021/03/16 11:05:03;;;;;;;7.88;0.82;;;10.50;88.20;;;;;;5021670;28;20047;-86
2021/03/16 11:07:43;;;;;;;11.80;1.88;;;10.70;85.80;;;;;;5103806;27;20352;-86
2021/03/16 11:10:11;;;;;;;11.40;0.90;;;10.90;82.70;;;;;;5022460;28;20035;-86
2021/03/16 11:12:37;;;;;;;6.18;0.80;;;10.90;81.50;;;;;;5036088;28;20048;-85
2021/03/16 11:15:05;;;;;;;6.78;0.60;;;11.10;82.80;;;;;;5067567;28;20387;-85
2021/03/16 11:17:31;;;;;;;6.68;0.63;;;11.20;81.70;;;;;;5046845;28;20055;-80
2021/03/16 11:19:58;;;;;;;7.05;0.85;;;11.20;82.20;;;;;;5048478;28;20035;-80
2021/03/16 11:22:30;;;;;;;5.03;0.50;;;11.20;82.20;;;;;;5033796;28;20043;-80
2021/03/16 11:24:57;;;;;;;10.25;1.13;;;11.10;83.00;;;;;;5050209;28;20040;-80
2021/03/16 11:27:23;;;;;;;7.00;0.70;;;11.10;82.20;;;;;;5034459;28;20048;-80
2021/03/16 11:29:50;;;;;;;11.30;1.38;;;11.00;81.50;;;;;;5066128;28;20071;-79
2021/03/16 11:32:16;;;;;;;7.65;0.70;;;10.90;82.10;;;;;;5048932;28;20038;-82
2021/03/16 11:35:03;;;;;;;8.25;0.50;;;10.80;82.10;;;;;;5042709;28;20039;-85
2021/03/16 11:37:48;;;;;;;11.90;1.02;;;10.70;81.90;;;;;;5077875;28;20044;-80
2021/03/16 11:40:33;;;;;;;10.40;1.30;;;10.80;82.20;;;;;;5059213;28;20406;-82
2021/03/16 11:43:18;;;;;;;9.63;0.68;;;10.80;80.60;;;;;;5077756;28;20051;-82
2021/03/16 11:46:23;;;;;;;10.82;0.80;;;10.90;81.60;;;;;;5054149;28;20044;-81
2021/03/16 11:49:08;;;;;;;12.95;0.70;;;10.90;80.10;;;;;;5038264;28;20114;-81
2021/03/16 11:51:53;;;;;;;9.35;0.88;;;11.00;81.30;;;;;;5074519;28;20032;-81
2021/03/16 11:54:56;;;;;;;7.18;0.82;;;11.10;81.50;;;;;;5069471;28;20059;-82
2021/03/16 11:57:41;;;;;;;5.90;0.73;;;11.30;81.00;;;;;;5061690;28;20052;-82
2021/03/16 12:00:27;;;;;;;8.98;0.75;;;11.30;80.50;;;;;;5063676;28;20055;-82
2021/03/16 12:03:12;;;;;;;10.02;0.80;;;11.30;80.40;;;;;;5072004;28;20499;-77
2021/03/16 12:06:01;;;;;;;12.20;0.80;;;11.10;79.80;;;;;;5060517;28;20733;-82
2021/03/16 12:08:46;;;;;;;9.98;1.55;;;10.90;80.60;;;;;;5092002;28;20058;-80
2021/03/16 12:11:32;;;;;;;11.40;1.38;;;10.90;81.30;;;;;;5056173;28;20047;-83
2021/03/16 12:14:17;;;;;;;7.30;0.90;;;11.00;80.70;;;;;;5080333;28;20058;-81
2021/03/16 12:17:02;;;;;;;7.15;0.73;;;10.90;80.30;;;;;;5053526;28;20495;-80
2021/03/16 12:19:47;;;;;;;9.52;0.93;;;10.60;82.10;;;;;;5039244;28;20028;-80
2021/03/16 12:22:33;;;;;;;12.13;1.10;;;10.30;83.70;;;;;;5072146;28;20060;-79
2021/03/16 12:25:18;;;;;;;15.15;1.10;;;10.20;84.70;;;;;;5062197;28;20460;-79
2021/03/16 12:28:04;;;;;;;9.00;0.80;;;10.10;84.90;;;;;;5060357;28;20040;-79
2021/03/16 12:30:50;;;;;;;8.05;0.75;;;10.20;85.40;;;;;;5063775;28;20036;-80
2021/03/16 12:33:35;;;;;;;7.38;0.43;;;10.40;84.10;;;;;;5060496;28;20048;-80
2021/03/16 12:36:21;;;;;;;9.63;0.73;;;10.70;83.70;;;;;;5046723;28;20044;-80
2021/03/16 12:39:07;;;;;;;9.82;1.08;;;11.00;82.70;;;;;;5056802;28;20477;-80
2021/03/16 12:41:52;;;;;;;5.88;0.65;;;11.80;81.40;;;;;;5064796;28;20391;-82
2021/03/16 12:44:37;;;;;;;7.55;0.75;;;12.80;78.20;;;;;;5058056;28;20040;-77
2021/03/16 12:47:23;;;;;;;7.60;1.30;;;13.70;73.70;;;;;;5073229;28;20055;-80
2021/03/16 12:50:10;;;;;;;6.95;0.60;;;14.10;74.10;;;;;;5054457;28;20048;-79
2021/03/16 12:52:55;;;;;;;6.93;0.70;;;14.20;72.30;;;;;;5057876;28;20041;-78
2021/03/16 12:55:42;;;;;;;9.13;0.90;;;14.10;71.90;;;;;;5055237;28;20039;-78
2021/03/16 12:58:27;;;;;;;7.38;0.77;;;13.80;70.90;;;;;;5062936;28;20036;-78
2021/03/16 13:01:12;;;;;;;9.75;1.00;;;13.40;72.10;;;;;;5059297;28;20044;-78
2021/03/16 13:03:57;;;;;;;7.15;0.43;;;13.10;71.80;;;;;;5039785;28;20047;-78
2021/03/16 13:06:42;;;;;;;9.32;0.70;;;12.80;72.40;;;;;;5059703;28;20617;-78
2021/03/16 13:09:27;;;;;;;7.18;0.68;;;12.60;73.50;;;;;;5066562;28;20416;-78
2021/03/16 13:12:13;;;;;;;5.80;0.55;;;12.20;71.90;;;;;;5039484;28;20032;-78
2021/03/16 13:14:58;;;;;;;6.18;0.65;;;11.80;73.00;;;;;;5048259;28;20044;-78
2021/03/16 13:17:43;;;;;;;5.95;0.60;;;11.50;74.50;;;;;;5066313;28;20119;-78
2021/03/16 13:20:28;;;;;;;10.43;1.00;;;11.10;76.40;;;;;;5064331;28;20483;-78
2021/03/16 13:23:13;;;;;;;5.63;0.60;;;10.90;77.90;;;;;;5064137;28;20052;-78
2021/03/16 13:25:58;;;;;;;5.10;0.50;;;10.60;79.20;;;;;;5064393;28;20044;-77
2021/03/16 13:28:44;;;;;;;5.88;0.90;;;10.50;80.80;;;;;;5075656;28;20060;-82
2021/03/16 13:31:29;;;;;;;6.03;0.90;;;10.50;81.80;;;;;;5075497;28;20490;-79
2021/03/16 13:34:14;;;;;;;5.90;1.10;;;10.60;81.80;;;;;;5071466;28;20056;-79
2021/03/16 13:36:59;;;;;;;10.82;0.85;;;10.60;82.10;;;;;;5043424;28;20049;-79
2021/03/16 13:39:44;;;;;;;9.25;1.10;;;10.50;82.40;;;;;;5069407;28;20148;-79
2021/03/16 13:42:30;;;;;;;7.97;0.80;;;10.40;82.00;;;;;;5069216;28;20414;-79
2021/03/16 13:45:17;;;;;;;7.78;0.90;;;10.30;82.70;;;;;;5071513;28;20040;-79
2021/03/16 13:48:02;;;;;;;9.15;1.02;;;10.00;83.60;;;;;;5068260;28;20024;-78
2021/03/16 13:50:47;;;;;;;7.43;0.80;;;9.90;84.70;;;;;;5071305;28;20032;-78
2021/03/16 13:53:36;;;;;;;6.90;0.80;;;9.60;86.00;;;;;;5068318;28;20075;-78
2021/03/16 13:56:21;;;;;;;12.88;1.50;;;9.40;87.40;;;;;;5050834;28;20044;-77
2021/03/16 13:59:06;;;;;;;7.10;1.50;;;9.20;88.80;;;;;;5064739;28;20067;-78
2021/03/16 14:01:51;;;;;;;7.00;0.73;;;9.00;90.20;;;;;;5053428;28;20048;-78
2021/03/16 14:04:37;;;;;;;5.75;0.70;;;8.90;90.70;;;;;;5066845;28;20063;-78